Latest Coastal Weather Observations for Tewantin

IDQ60701

Issued at 1:12 am EST Saturday 20 December 2014 (issued every 10 minutes, with the page automatically refreshed every 10 minutes)

About coastal observations | Map of coastal stations | Coastal observations for QLD | Marine services | Other Formats
Station Details ID: 040908 Name: TEWANTIN RSL PARK Lat: -26.39 Lon: 153.04 Height: 6.4 m
Data from the previous 72 hours. | See also: Recent months at Tewantin
Date/Time
EST
Temp

°C
Wind Pressure Rain
since 9am
mm
Weather Cloud Vis
km
Sea
Height
m
Swell
Dir
 
Speed
knots
Gust
knots
hPa Trend Height
m
Period
s
Dir
20/01:00am 22.1 S 6 7 1012.6 - 0.2 - - - - - - -
20/12:30am 22.3 S 5 8 1012.7 - 0.2 - - - - - - -
20/12:00am 22.5 S 4 6 1012.9 - 0.2 - - - - - - -
 
Date/Time
EST
Temp

°C
Wind Pressure Rain
since 9am
mm
Weather Cloud Vis
km
Sea
Height
m
Swell
Dir
 
Speed
knots
Gust
knots
hPa Trend Height
m
Period
s
Dir
19/11:30pm 23.0 SSW 1 3 1013.0 - 0.2 - - - - - - -
19/11:00pm 23.5 SW 2 4 1013.1 - 0.2 - - - - - - -
19/10:30pm 23.5 ENE 1 4 1013.0 - 0.2 - - - - - - -
19/10:00pm 23.5 NW 4 10 1012.5 - 0.2 - - - - - - -
19/09:30pm 23.8 CALM 0 0 1012.2 - 0.2 - - - - - - -
19/09:00pm 24.2 N 4 6 1011.9 - 0.2 - - - - - - -
19/08:30pm 24.2 CALM 0 0 1011.4 - 0.2 - - - - - - -
19/08:00pm 24.7 N 3 5 1011.3 - 0.2 - - - - - - -
19/07:30pm 25.0 N 4 6 1011.1 - 0.2 - - - - - - -
19/07:00pm 25.1 N 3 6 1010.8 - 0.2 - - - - - - -
19/06:30pm 25.4 NNE 5 8 1010.6 - 0.2 - - - - - - -
19/06:00pm 25.9 NNE 5 9 1010.3 - 0.2 - - - - - - -
19/05:30pm 26.6 NNE 8 12 1009.7 - 0.2 - - - - - - -
19/05:00pm 26.9 NNE 8 11 1009.5 - 0.2 - - - - - - -
19/04:30pm 27.3 NE 7 11 1009.2 - 0.2 - - - - - - -
19/04:00pm 27.2 NNE 9 13 1009.1 - 0.2 - - - - - - -
19/03:30pm 27.6 NNE 9 12 1009.0 - 0.2 - - - - - - -
19/03:00pm 28.5 NNE 8 10 1009.3 - 0.2 - - - - - - -
19/02:30pm 27.9 NNE 8 11 1009.5 - 0.2 - - - - - - -
19/02:00pm 28.3 NNE 8 11 1009.8 - 0.2 - - - - - - -
19/01:30pm 29.2 NE 5 10 1010.1 - 0.2 - - - - - - -
19/01:00pm 28.9 NNE 5 9 1010.4 - 0.2 - - - - - - -
19/12:30pm 28.5 NNE 4 5 1010.8 - 0.2 - - - - - - -
19/12:00pm 27.9 N 3 6 1011.0 - 0.2 - - - - - - -
19/11:30am 27.1 NNE 3 5 1011.4 - 0.2 - - - - - - -
19/11:00am 26.3 NW 5 8 1011.8 - 0.2 - - - - - - -
19/10:30am 25.5 NW 3 7 1012.2 - 0.2 - - - - - - -
19/10:00am 23.7 NW 5 8 1012.3 - 0.0 - - - - - - -
19/09:30am 22.8 NNW 5 7 1012.5 - 0.0 - - - - - - -
19/09:00am 22.0 NW 5 7 1012.7 - 23.0 Recent precip. - - - - - -
19/08:30am 21.3 NW 3 5 1012.7 - 23.0 - - - - - - -
19/08:00am 21.1 NW 3 4 1012.3 - 22.8 - - - - - - -
19/07:30am 21.1 W 2 4 1012.6 - 22.8 - - - - - - -
19/07:00am 21.1 NW 3 5 1012.5 - 22.6 - - - - - - -
19/06:30am 21.1 NW 1 4 1012.5 - 22.4 - - - - - - -
19/06:00am 21.0 WNW 1 3 1012.5 - 22.0 Rain - - - - - -
19/05:30am 20.9 CALM 0 0 1012.1 - 21.4 - - - - - - -
19/05:00am 20.8 CALM 0 0 1011.8 - 21.4 - - - - - - -
19/04:30am 20.7 CALM 0 0 1011.6 - 21.2 - - - - - - -
19/04:00am 20.8 CALM 0 0 1011.8 - 20.6 - - - - - - -
19/03:30am 20.8 SW 1 4 1011.8 - 20.0 - - - - - - -
19/03:00am 20.8 SSW 2 4 1012.0 - 19.4 Rain - - - - - -
19/02:30am 20.9 SSW 5 7 1011.8 - 17.4 - - - - - - -
19/02:00am 21.2 SSW 4 8 1011.6 - 16.0 - - - - - - -
19/01:30am 21.9 SSW 7 10 1011.8 - 13.6 - - - - - - -
19/01:00am 22.6 SW 3 7 1012.5 - 12.0 - - - - - - -
19/12:30am 22.7 WSW 3 6 1012.8 - 11.2 - - - - - - -
19/12:00am 22.9 WNW 4 7 1013.0 - 8.2 Rain - - - - - -
 
Date/Time
EST
Temp

°C
Wind Pressure Rain
since 9am
mm
Weather Cloud Vis
km
Sea
Height
m
Swell
Dir
 
Speed
knots
Gust
knots
hPa Trend Height
m
Period
s
Dir
18/11:30pm 22.9 NNW 3 5 1012.5 - 7.0 - - - - - - -
18/11:00pm 23.1 NW 3 7 1012.5 - 6.2 - - - - - - -
18/10:30pm 23.1 WNW 5 7 1013.0 - 4.6 - - - - - - -
18/10:00pm 23.4 W 2 4 1012.3 - 4.4 - - - - - - -
18/09:30pm 23.2 NNE 2 4 1012.1 - 4.4 - - - - - - -
18/09:00pm 23.2 ENE 5 9 1012.0 - 4.4 Recent precip. - - - - - -
18/08:30pm 23.4 S 3 6 1011.3 - 4.4 - - - - - - -
18/08:00pm 23.1 S 4 6 1011.6 - 4.2 - - - - - - -
18/07:30pm 27.9 WNW 3 7 1011.0 - 0.0 - - - - - - -
18/07:00pm 27.7 NNW 8 12 1009.1 - 0.0 - - - - - - -
18/06:30pm 28.0 NNW 9 13 1008.2 - 0.0 - - - - - - -
18/06:00pm 28.3 N 9 16 1007.9 - 0.0 - - - - - - -
18/05:30pm 28.6 N 11 17 1007.5 - 0.0 - - - - - - -
18/05:00pm 29.3 N 12 19 1007.2 - 0.0 - - - - - - -
18/04:30pm 29.8 N 11 15 1006.7 - 0.0 - - - - - - -
18/04:00pm 30.4 N 13 19 1006.5 - 0.0 - - - - - - -
18/03:30pm 30.6 NNE 10 19 1006.2 - 0.0 - - - - - - -
18/03:00pm 31.0 NNE 11 20 1006.1 - 0.0 - - - - - - -
18/02:30pm 32.2 N 13 21 1006.7 - 0.0 - - - - - - -
18/02:00pm 31.3 NE 13 17 1006.8 - 0.0 - - - - - - -
18/01:30pm 32.5 NNE 10 16 1007.5 - 0.0 - - - - - - -
18/01:00pm 31.0 NE 10 15 1008.0 - 0.0 - - - - - - -
18/12:30pm 30.7 NE 8 11 1008.5 - 0.0 - - - - - - -
18/12:00pm 30.0 NE 9 12 1009.2 - 0.0 - - - - - - -
18/11:30am 30.1 NE 9 13 1009.5 - 0.0 - - - - - - -
18/11:00am 29.1 NE 8 11 1010.1 - 0.0 - - - - - - -
18/10:30am 29.4 NE 8 12 1010.3 - 0.0 - - - - - - -
18/10:00am 29.6 NE 8 12 1011.0 - 0.0 - - - - - - -
18/09:30am 29.4 N 8 13 1011.0 - 0.0 - - - - - - -
18/09:00am 29.0 N 8 12 1011.1 - 0.4 - - - - - - -
18/08:30am 28.2 NNW 7 12 1011.6 - 0.4 - - - - - - -
18/08:00am 27.9 NNW 6 9 1011.7 - 0.4 - - - - - - -
18/07:30am 27.0 NNW 5 11 1011.4 - 0.4 - - - - - - -
18/07:00am 26.4 CALM 0 4 1011.3 - 0.4 - - - - - - -
18/06:30am 25.8 SSW 3 4 1011.3 - 0.4 - - - - - - -
18/06:00am 24.1 SSW 3 4 1011.1 - 0.4 - - - - - - -
18/05:30am 22.9 SSE 2 4 1010.7 - 0.4 - - - - - - -
18/05:00am 22.6 WSW 1 4 1010.1 - 0.4 - - - - - - -
18/04:30am 23.0 CALM 0 3 1009.7 - 0.4 - - - - - - -
18/04:00am 23.3 NNW 4 5 1009.2 - 0.4 - - - - - - -
18/03:30am 23.8 WSW 1 4 1009.3 - 0.4 - - - - - - -
18/03:00am 24.3 WSW 1 5 1008.8 - 0.4 - - - - - - -
18/02:30am 24.7 SW 3 5 1008.7 - 0.4 - - - - - - -
18/02:00am 24.5 NW 2 6 1007.6 - 0.4 - - - - - - -
18/01:30am 24.3 NW 5 9 1007.4 - 0.4 - - - - - - -
18/01:00am 24.1 WNW 7 13 1007.8 - 0.4 - - - - - - -
18/12:30am 24.2 WNW 5 11 1007.9 - 0.4 - - - - - - -
18/12:00am 24.1 W 5 8 1008.2 - 0.4 - - - - - - -
 
Date/Time
EST
Temp

°C
Wind Pressure Rain
since 9am
mm
Weather Cloud Vis
km
Sea
Height
m
Swell
Dir
 
Speed
knots
Gust
knots
hPa Trend Height
m
Period
s
Dir
17/11:30pm 24.5 WNW 5 8 1008.1 - 0.4 - - - - - - -
17/11:00pm 24.4 WNW 5 9 1008.1 - 0.4 - - - - - - -
17/10:30pm 24.3 WNW 5 7 1008.1 - 0.4 - - - - - - -
17/10:00pm 24.1 NW 3 5 1008.0 - 0.4 - - - - - - -
17/09:30pm 23.1 NW 5 7 1007.9 - 0.4 - - - - - - -
17/09:00pm 23.2 WNW 6 11 1007.7 - 0.4 - - - - - - -
17/08:30pm 24.3 NNW 5 9 1007.4 - 0.4 - - - - - - -
17/08:00pm 25.0 NW 8 14 1006.9 - 0.4 - - - - - - -
17/07:30pm 24.8 NW 6 10 1006.9 - 0.4 - - - - - - -
17/07:00pm 27.0 W 7 10 1005.8 - 0.4 - - - - - - -
17/06:50pm 26.6 SW 8 14 1005.4 - 0.4 - - - - - - -
17/06:32pm 28.4 NNW 15 27 1003.4 - 0.4 - - - - - - -
17/06:30pm 27.7 NNW 13 25 1003.5 - 0.4 - - - - - - -
17/06:29pm 27.8 NW 13 25 1003.7 - 0.4 - - - - - - -
17/06:00pm 27.8 W 6 13 1005.9 - 0.2 - - - - - - -
17/05:55pm 28.3 W 3 7 1005.9 - 0.2 - - - - - - -
17/05:30pm 27.7 ESE 1 6 1003.9 - 0.2 - - - - - - -
17/05:00pm 28.0 N 3 6 1003.8 - 0.2 - - - - - - -
17/04:30pm 27.6 SSW 4 7 1004.1 - 0.2 - - - - - - -
17/04:00pm 27.0 NE 5 10 1003.9 - 0.0 - - - - - - -
17/03:30pm 28.5 NE 9 13 1003.4 - 0.0 - - - - - - -
17/03:00pm 30.0 NNE 10 15 1003.4 - 0.0 - - - - - - -
17/02:30pm 31.2 NE 8 13 1004.1 - 0.0 - - - - - - -
17/02:00pm 30.7 NNE 10 14 1004.4 - 0.0 - - - - - - -
17/01:30pm 30.6 NNE 11 15 1004.7 - 0.0 - - - - - - -
17/01:00pm 30.5 NNE 10 16 1005.1 - 0.0 - - - - - - -
17/12:30pm 30.8 NE 8 14 1005.5 - 0.0 - - - - - - -
17/12:00pm 33.1 N 7 11 1005.6 - 0.0 - - - - - - -
17/11:30am 32.4 N 7 11 1006.0 - 0.0 - - - - - - -
17/11:00am 32.0 NNE 7 11 1006.4 - 0.0 - - - - - - -
17/10:30am 31.7 NW 4 8 1006.8 - 0.0 - - - - - - -
17/10:00am 30.6 NNW 8 11 1007.1 - 0.0 - - - - - - -
17/09:30am 29.9 NNW 7 11 1007.1 - 0.0 - - - - - - -
17/09:00am 28.5 NNW 6 10 1007.2 - 0.0 - - - - - - -
17/08:30am 28.4 NW 6 11 1007.5 - 0.0 - - - - - - -
17/08:00am 27.4 NW 4 6 1007.4 - 0.0 - - - - - - -
17/07:30am 26.7 NW 4 7 1007.4 - 0.0 - - - - - - -
17/07:00am 25.3 WNW 5 8 1007.3 - 0.0 - - - - - - -
17/06:30am 24.6 NW 4 7 1007.1 - 0.0 - - - - - - -
17/06:00am 23.9 NW 4 6 1006.9 - 0.0 - - - - - - -
17/05:30am 23.6 WNW 4 7 1006.7 - 0.0 - - - - - - -
17/05:00am 23.5 WNW 3 6 1006.0 - 0.0 - - - - - - -
17/04:30am 23.5 NW 6 10 1005.5 - 0.0 - - - - - - -
17/04:00am 23.5 NW 7 11 1005.4 - 0.0 - - - - - - -
17/03:30am 23.5 NNW 4 5 1004.9 - 0.0 - - - - - - -
17/03:00am 23.4 NNW 4 7 1005.3 - 0.0 - - - - - - -
17/02:30am 23.5 NNW 4 7 1005.8 - 0.0 - - - - - - -
17/02:00am 23.4 NNW 3 5 1006.4 - 0.0 - - - - - - -
17/01:30am 23.5 WNW 2 5 1006.6 - 0.0 - - - - - - -

Other Formats:

Comma delimited format used in spreadsheet applications
http://www.bom.gov.au/fwo/IDQ60701/IDQ60701.94570.axf

JavaScript Object Notation format (JSON) in row-major order
http://www.bom.gov.au/fwo/IDQ60701/IDQ60701.94570.json